Terminal Aerodrome Forecast
Issued by NWS Twin Cities, MN

Home | Current Version | Previous Version | Graphics & Text | Print | Product List | Glossary On
Versions: 1 2 3 4 5 6 7 8 9 10 11 12 13 14 15 16 17 18 19 20 21 22 23
020
FTUS43 KMPX 252026 AAA
TAFSTC
TAF AMD
KSTC 252026Z 2520/2618 18011KT P6SM SCT025 BKN040
     FM260200 20005KT 6SM SHRA VCTS SCT040CB OVC080
      TEMPO 2603/2607 2SM TSRA SCT025CB OVC040
     FM260900 VRB03KT P6SM OVC050
      TEMPO 2609/2613 5SM SHRA OVC025
     FM261400 36005KT P6SM OVC050=

USA.gov is the U.S. government's official web portal to all federal, state and local government web resources and services.